Time;durP1;ratioP1;P1;durP2;ratioP2;P2;SDS_P1;SDS_P2;PMS_P1;PMS_P2;Temp;Humidity;BMP_temperature;BMP_pressure;BME280_temperature;BME280_humidity;BME280_pressure;Samples;Min_cycle;Max_cycle;Signal;HPM_P1;HPM_P2
2021/07/30 00:01:22;;;;;;;12.40;6.45;;;13.20;99.90;;;;;;5031074;28;20045;-46
2021/07/30 00:03:49;;;;;;;11.07;6.53;;;13.20;99.90;;;;;;5031271;28;20069;-45
2021/07/30 00:06:15;;;;;;;14.95;6.78;;;13.10;99.90;;;;;;5032353;28;20135;-44
2021/07/30 00:08:41;;;;;;;10.90;6.53;;;13.10;99.90;;;;;;5032005;28;20127;-44
2021/07/30 00:11:07;;;;;;;9.68;6.55;;;13.00;99.90;;;;;;5031601;28;20053;-44
2021/07/30 00:13:33;;;;;;;9.38;6.50;;;13.00;99.90;;;;;;5030359;28;20053;-44
2021/07/30 00:15:59;;;;;;;10.73;7.30;;;13.00;99.90;;;;;;5030907;28;20060;-42
2021/07/30 00:18:26;;;;;;;11.35;6.85;;;13.00;99.90;;;;;;5031088;28;20059;-44
2021/07/30 00:20:52;;;;;;;11.70;7.50;;;12.90;99.90;;;;;;5030947;28;20057;-43
2021/07/30 00:23:18;;;;;;;13.35;7.10;;;12.90;99.90;;;;;;5030336;28;20057;-44
2021/07/30 00:25:44;;;;;;;12.98;7.40;;;12.90;99.90;;;;;;5036643;28;20052;-43
2021/07/30 00:28:10;;;;;;;12.40;8.15;;;12.90;99.90;;;;;;5030924;28;20485;-43
2021/07/30 00:30:36;;;;;;;11.13;7.68;;;12.90;99.90;;;;;;5031486;28;20094;-44
2021/07/30 00:33:03;;;;;;;13.60;8.05;;;12.80;99.90;;;;;;5029149;28;20494;-46
2021/07/30 00:35:29;;;;;;;11.05;7.40;;;12.80;99.90;;;;;;5029538;28;20145;-45
2021/07/30 00:38:00;;;;;;;12.57;6.93;;;12.80;99.90;;;;;;5030825;28;20076;-43
2021/07/30 00:40:26;;;;;;;11.30;7.78;;;12.70;99.90;;;;;;5030545;28;20474;-43
2021/07/30 00:42:54;;;;;;;13.05;7.07;;;12.70;99.90;;;;;;5029653;28;20053;-45
2021/07/30 00:45:20;;;;;;;13.82;8.10;;;12.70;99.90;;;;;;5028990;28;20049;-43
2021/07/30 00:47:51;;;;;;;13.82;8.07;;;12.70;99.90;;;;;;5030651;28;20772;-44
2021/07/30 00:50:18;;;;;;;16.02;8.27;;;12.60;99.90;;;;;;5030241;28;20045;-45
2021/07/30 00:52:45;;;;;;;10.65;8.20;;;12.60;99.90;;;;;;5029035;28;20127;-42
2021/07/30 00:55:12;;;;;;;14.73;8.13;;;12.60;99.90;;;;;;5030048;28;20045;-44
2021/07/30 00:57:38;;;;;;;13.82;8.57;;;12.60;99.90;;;;;;5045506;28;20049;-44
2021/07/30 01:00:05;;;;;;;13.07;8.77;;;12.60;99.90;;;;;;5028969;28;20072;-44
2021/07/30 01:02:35;;;;;;;14.45;8.30;;;12.60;99.90;;;;;;5029745;28;20760;-44
2021/07/30 01:05:02;;;;;;;15.02;9.10;;;12.60;99.90;;;;;;5028398;28;20513;-44
2021/07/30 01:07:28;;;;;;;20.02;8.90;;;12.60;99.90;;;;;;5030325;28;20053;-44
2021/07/30 01:09:55;;;;;;;15.32;9.68;;;12.60;99.90;;;;;;5030477;28;20049;-42
2021/07/30 01:12:23;;;;;;;19.83;9.25;;;12.60;99.90;;;;;;5026825;28;20052;-44
2021/07/30 01:14:54;;;;;;;13.02;9.40;;;12.60;99.90;;;;;;5012721;28;20103;-43
2021/07/30 01:17:24;;;;;;;18.17;9.48;;;12.50;99.90;;;;;;5028419;28;20057;-44
2021/07/30 01:19:53;;;;;;;15.20;9.43;;;12.60;99.90;;;;;;5010587;28;20054;-45
2021/07/30 01:22:26;;;;;;;16.67;9.38;;;12.60;99.90;;;;;;5023796;28;20057;-44
2021/07/30 01:24:56;;;;;;;16.15;9.70;;;12.60;99.90;;;;;;5009840;28;20050;-45
2021/07/30 01:27:23;;;;;;;20.67;9.90;;;12.60;99.90;;;;;;5017502;28;20045;-45
2021/07/30 01:29:52;;;;;;;14.82;10.68;;;12.60;99.90;;;;;;5010592;28;20127;-43
2021/07/30 01:32:26;;;;;;;19.75;9.45;;;12.60;99.90;;;;;;5018983;28;20653;-44
2021/07/30 01:34:52;;;;;;;19.00;9.75;;;12.60;99.90;;;;;;5024441;28;20081;-43
2021/07/30 01:37:18;;;;;;;16.13;9.57;;;12.60;99.90;;;;;;5011188;28;20066;-45
2021/07/30 01:39:44;;;;;;;17.55;10.57;;;12.60;99.90;;;;;;5029531;28;20049;-44
2021/07/30 01:42:10;;;;;;;14.55;10.15;;;12.60;99.90;;;;;;5028928;28;20126;-43
2021/07/30 01:44:36;;;;;;;17.35;10.32;;;12.60;99.90;;;;;;5027976;28;20052;-44
2021/07/30 01:47:03;;;;;;;14.48;11.07;;;12.50;99.90;;;;;;5027553;28;20049;-44
2021/07/30 01:49:29;;;;;;;16.33;10.45;;;12.50;99.90;;;;;;5034474;28;20053;-45
2021/07/30 01:51:55;;;;;;;15.25;10.25;;;12.40;99.90;;;;;;5022321;28;20045;-43
2021/07/30 01:54:21;;;;;;;14.93;10.93;;;12.40;99.90;;;;;;5025933;28;20056;-43
2021/07/30 01:56:47;;;;;;;16.08;10.60;;;12.40;99.90;;;;;;5033081;28;20058;-45
2021/07/30 01:59:14;;;;;;;16.58;10.38;;;12.40;99.90;;;;;;5029114;28;20049;-45
2021/07/30 02:01:41;;;;;;;14.65;10.35;;;12.40;99.90;;;;;;5028754;28;20053;-43
2021/07/30 02:04:07;;;;;;;15.57;10.35;;;12.40;99.90;;;;;;5028359;28;20053;-44
2021/07/30 02:06:33;;;;;;;17.65;11.32;;;12.40;99.90;;;;;;5029121;28;20050;-43
2021/07/30 02:09:00;;;;;;;16.27;11.45;;;12.40;99.90;;;;;;5029425;28;20144;-44
2021/07/30 02:11:29;;;;;;;17.75;11.05;;;12.50;99.90;;;;;;5028774;28;20490;-44
2021/07/30 02:16:39;;;;;;;16.30;10.80;;;12.50;99.90;;;;;;5025874;28;20052;-43
2021/07/30 02:19:06;;;;;;;18.70;10.52;;;12.50;99.90;;;;;;5009428;28;20832;-45
2021/07/30 02:21:32;;;;;;;18.38;10.93;;;12.40;99.90;;;;;;5014256;28;20387;-44
2021/07/30 02:23:58;;;;;;;18.80;11.50;;;12.40;99.90;;;;;;5033128;28;20048;-44
2021/07/30 02:26:24;;;;;;;20.25;10.95;;;12.40;99.90;;;;;;5027393;28;20057;-43
2021/07/30 02:28:50;;;;;;;20.08;11.30;;;12.30;99.90;;;;;;5043960;28;20152;-43
2021/07/30 02:31:16;;;;;;;16.90;10.93;;;12.30;99.90;;;;;;5028592;28;20081;-43
2021/07/30 02:33:43;;;;;;;17.38;11.48;;;12.30;99.90;;;;;;5029048;28;20042;-44
2021/07/30 02:36:10;;;;;;;15.65;11.60;;;12.30;99.90;;;;;;5028623;28;20776;-44
2021/07/30 02:38:36;;;;;;;17.00;12.60;;;12.30;99.90;;;;;;5050218;28;20417;-43
2021/07/30 02:41:02;;;;;;;18.55;12.55;;;12.30;99.90;;;;;;5028592;28;20061;-43
2021/07/30 02:43:28;;;;;;;19.70;12.35;;;12.30;99.90;;;;;;5026659;28;20521;-43
2021/07/30 02:45:54;;;;;;;20.23;13.25;;;12.30;99.90;;;;;;5031071;28;20041;-44
2021/07/30 02:48:20;;;;;;;17.02;13.15;;;12.20;99.90;;;;;;5028529;28;20053;-44
2021/07/30 02:50:48;;;;;;;16.15;11.65;;;12.20;99.90;;;;;;5027003;28;20060;-44
2021/07/30 02:53:14;;;;;;;21.48;13.55;;;12.20;99.90;;;;;;5014781;28;20056;-43
2021/07/30 02:55:41;;;;;;;19.85;12.25;;;12.20;99.90;;;;;;5026748;28;20128;-44
2021/07/30 02:58:11;;;;;;;20.17;13.27;;;12.20;99.90;;;;;;5027604;28;20564;-43
2021/07/30 03:00:38;;;;;;;24.13;14.35;;;12.20;99.90;;;;;;5028198;28;20045;-44
2021/07/30 03:03:04;;;;;;;21.88;13.75;;;12.10;99.90;;;;;;5027788;28;20137;-44
2021/07/30 03:05:30;;;;;;;21.20;13.57;;;12.20;99.90;;;;;;5026207;28;20050;-42
2021/07/30 03:07:57;;;;;;;22.08;14.60;;;12.20;99.90;;;;;;5028202;28;20144;-44
2021/07/30 03:10:41;;;;;;;21.63;13.50;;;12.20;99.90;;;;;;5011881;28;20045;-45
2021/07/30 03:13:10;;;;;;;20.85;13.52;;;12.10;99.90;;;;;;5020405;28;20140;-44
2021/07/30 03:15:36;;;;;;;21.65;14.07;;;12.10;99.90;;;;;;5026291;28;20076;-44
2021/07/30 03:18:02;;;;;;;17.90;13.75;;;12.10;99.90;;;;;;5028811;28;20037;-44
2021/07/30 03:20:28;;;;;;;24.20;15.07;;;12.10;99.90;;;;;;5011153;28;20053;-45
2021/07/30 03:22:54;;;;;;;23.73;14.50;;;12.10;99.90;;;;;;5028151;28;20111;-43
2021/07/30 03:25:20;;;;;;;24.92;14.68;;;12.10;99.90;;;;;;5029527;28;20048;-44
2021/07/30 03:27:47;;;;;;;21.25;14.77;;;12.00;99.90;;;;;;5028074;28;20050;-45
2021/07/30 03:30:16;;;;;;;20.60;13.98;;;12.00;99.90;;;;;;5027443;28;20049;-44
2021/07/30 03:32:43;;;;;;;19.23;13.93;;;12.00;99.90;;;;;;5027790;28;20085;-44
2021/07/30 03:35:10;;;;;;;16.88;12.68;;;12.00;99.90;;;;;;5027456;28;20045;-43
2021/07/30 03:37:36;;;;;;;19.50;13.93;;;12.00;99.90;;;;;;5010397;28;20049;-44
2021/07/30 03:40:03;;;;;;;23.58;14.15;;;12.00;99.90;;;;;;5014553;28;20053;-44
2021/07/30 03:42:30;;;;;;;22.45;14.90;;;12.00;99.90;;;;;;5016340;28;20076;-44
2021/07/30 03:44:58;;;;;;;25.80;13.98;;;12.00;99.90;;;;;;5026934;28;20045;-44
2021/07/30 03:47:25;;;;;;;19.88;13.82;;;12.00;99.90;;;;;;5026969;28;20059;-44
2021/07/30 03:49:51;;;;;;;22.63;14.93;;;12.00;99.90;;;;;;5028093;28;20057;-44
2021/07/30 03:52:18;;;;;;;18.15;13.32;;;12.00;99.90;;;;;;5023448;28;20045;-45
2021/07/30 03:54:44;;;;;;;19.42;12.95;;;11.90;99.90;;;;;;5012208;28;20715;-44
2021/07/30 03:57:11;;;;;;;19.02;14.32;;;11.90;99.90;;;;;;5028094;28;20053;-43
2021/07/30 03:59:38;;;;;;;20.95;14.27;;;11.90;99.90;;;;;;5026748;28;20485;-42
2021/07/30 04:02:04;;;;;;;23.27;15.35;;;11.90;99.90;;;;;;5025610;28;20046;-43
2021/07/30 04:04:30;;;;;;;21.52;13.43;;;11.90;99.90;;;;;;5026326;28;20057;-43
2021/07/30 04:06:57;;;;;;;20.85;14.55;;;11.90;99.90;;;;;;5026443;28;20176;-44
2021/07/30 04:09:25;;;;;;;21.98;14.55;;;11.90;99.90;;;;;;5028939;28;20052;-43
2021/07/30 04:11:51;;;;;;;20.38;14.50;;;11.90;99.90;;;;;;5026902;28;20456;-45
2021/07/30 04:14:18;;;;;;;20.88;12.70;;;11.90;99.90;;;;;;5026271;28;20076;-45
2021/07/30 04:16:46;;;;;;;23.05;14.10;;;11.90;99.90;;;;;;5026367;28;20132;-43
2021/07/30 04:19:12;;;;;;;21.55;14.30;;;12.00;99.90;;;;;;5027091;28;20187;-43
2021/07/30 04:21:39;;;;;;;20.35;14.05;;;12.00;99.90;;;;;;5025162;28;20519;-44
2021/07/30 04:24:05;;;;;;;21.70;14.38;;;12.00;99.90;;;;;;5026094;28;20144;-44
2021/07/30 04:26:31;;;;;;;23.27;14.60;;;12.00;99.90;;;;;;5027347;28;20049;-45
2021/07/30 04:28:58;;;;;;;19.52;13.93;;;12.00;99.90;;;;;;5026271;28;20540;-46
2021/07/30 04:31:24;;;;;;;22.55;14.15;;;12.10;99.90;;;;;;5027893;28;20057;-44
2021/07/30 04:33:50;;;;;;;23.92;14.68;;;12.10;99.90;;;;;;5027079;28;20041;-45
2021/07/30 04:36:17;;;;;;;17.58;13.68;;;12.10;99.90;;;;;;5031041;28;20053;-44
2021/07/30 04:38:43;;;;;;;18.35;14.00;;;12.20;99.90;;;;;;5031296;28;20052;-46
2021/07/30 04:41:10;;;;;;;19.55;12.95;;;12.20;99.90;;;;;;5030630;28;20067;-46
2021/07/30 04:43:36;;;;;;;16.50;12.77;;;12.30;99.90;;;;;;5030563;28;20049;-48
2021/07/30 04:46:02;;;;;;;18.48;13.32;;;12.30;99.90;;;;;;5030090;28;20046;-49
2021/07/30 04:48:29;;;;;;;18.77;13.30;;;12.40;99.90;;;;;;5029902;28;20470;-47
2021/07/30 04:50:55;;;;;;;20.73;13.88;;;12.40;99.90;;;;;;5030394;28;20132;-48
2021/07/30 04:53:27;;;;;;;22.25;15.18;;;12.50;99.90;;;;;;5030294;28;20519;-46
2021/07/30 04:55:57;;;;;;;20.17;12.98;;;12.50;99.90;;;;;;5030350;28;20049;-48
2021/07/30 04:58:23;;;;;;;20.92;12.85;;;12.60;99.90;;;;;;5029646;28;20053;-49
2021/07/30 05:00:51;;;;;;;17.42;12.23;;;12.70;99.90;;;;;;5029964;28;20103;-47
2021/07/30 05:03:17;;;;;;;18.33;12.18;;;12.80;99.90;;;;;;5030385;28;20064;-48
2021/07/30 05:05:43;;;;;;;18.35;12.80;;;12.90;99.90;;;;;;5030156;28;20057;-49
2021/07/30 05:08:10;;;;;;;16.85;11.80;;;13.00;99.90;;;;;;5028537;28;20050;-48
2021/07/30 05:10:37;;;;;;;16.35;11.73;;;13.20;99.90;;;;;;5029934;28;20049;-48
2021/07/30 05:13:06;;;;;;;21.98;12.98;;;13.30;99.90;;;;;;5032947;28;20072;-47
2021/07/30 05:15:32;;;;;;;17.73;11.57;;;13.70;99.90;;;;;;5029615;28;20414;-49
2021/07/30 05:17:59;;;;;;;16.80;10.65;;;14.10;99.90;;;;;;5030152;28;20103;-48
2021/07/30 05:20:38;;;;;;;16.58;10.77;;;14.60;99.90;;;;;;5031948;28;20045;-48
2021/07/30 05:23:04;;;;;;;15.27;9.85;;;14.90;99.90;;;;;;5030886;28;20042;-49
2021/07/30 05:25:32;;;;;;;15.90;10.05;;;15.10;99.90;;;;;;5032583;28;20041;-49
2021/07/30 05:27:58;;;;;;;12.10;9.27;;;15.40;99.90;;;;;;5028797;28;20061;-47
2021/07/30 05:30:38;;;;;;;13.50;9.45;;;15.70;99.90;;;;;;5029855;28;20136;-47
2021/07/30 05:33:06;;;;;;;13.15;8.63;;;16.00;99.90;;;;;;5030066;28;20516;-48
2021/07/30 05:35:34;;;;;;;14.77;8.73;;;16.20;99.90;;;;;;5012016;28;20411;-48
2021/07/30 05:38:07;;;;;;;13.35;8.40;;;16.40;99.90;;;;;;5025412;28;20441;-50
2021/07/30 05:40:37;;;;;;;15.18;8.85;;;16.50;99.90;;;;;;5029863;28;20075;-49
2021/07/30 05:43:03;;;;;;;11.02;8.13;;;16.50;99.90;;;;;;5029874;28;20054;-50
2021/07/30 05:45:29;;;;;;;12.35;7.75;;;16.70;99.90;;;;;;5035989;28;20215;-49
2021/07/30 05:47:58;;;;;;;12.93;8.13;;;16.80;99.90;;;;;;5029703;28;20499;-48
2021/07/30 05:50:26;;;;;;;14.25;8.02;;;16.70;99.90;;;;;;5027271;28;20057;-47
2021/07/30 05:52:52;;;;;;;11.43;8.30;;;16.70;99.90;;;;;;5009324;28;20073;-50
2021/07/30 05:55:19;;;;;;;16.95;8.13;;;16.90;99.90;;;;;;5027440;28;20481;-48
2021/07/30 05:57:46;;;;;;;16.52;8.20;;;17.00;99.90;;;;;;5029019;28;20094;-49
2021/07/30 06:00:13;;;;;;;12.85;7.25;;;17.20;99.90;;;;;;5029762;28;20505;-50
2021/07/30 06:02:39;;;;;;;17.17;7.70;;;17.00;99.90;;;;;;5029620;28;20448;-49
2021/07/30 06:05:06;;;;;;;15.07;8.07;;;16.90;99.90;;;;;;5029417;28;20053;-49
2021/07/30 06:07:33;;;;;;;15.90;8.02;;;16.70;99.90;;;;;;5028278;28;20046;-48
2021/07/30 06:10:01;;;;;;;16.38;8.27;;;16.70;99.90;;;;;;5029105;28;20057;-45
2021/07/30 06:12:28;;;;;;;15.70;9.00;;;16.80;99.90;;;;;;5029429;28;20053;-48
2021/07/30 06:14:55;;;;;;;16.10;8.15;;;17.00;99.90;;;;;;5028842;28;20103;-47
2021/07/30 06:17:21;;;;;;;11.95;7.47;;;17.20;99.90;;;;;;5028235;28;20482;-47
2021/07/30 06:19:47;;;;;;;15.15;7.93;;;17.30;99.90;;;;;;5033029;28;20567;-50
2021/07/30 06:22:13;;;;;;;13.02;7.80;;;17.50;99.90;;;;;;5029249;28;20053;-49
2021/07/30 06:24:39;;;;;;;13.68;7.50;;;17.60;99.90;;;;;;5026245;28;20061;-47
2021/07/30 06:27:06;;;;;;;13.68;7.90;;;17.80;99.90;;;;;;5011604;28;20506;-47
2021/07/30 06:29:32;;;;;;;11.57;7.57;;;17.80;99.90;;;;;;5028046;28;20142;-48
2021/07/30 06:31:59;;;;;;;26.95;8.52;;;18.00;99.90;;;;;;5027053;28;20085;-48
2021/07/30 06:34:25;;;;;;;13.68;7.75;;;18.10;99.90;;;;;;5029204;28;20191;-48
2021/07/30 06:36:58;;;;;;;14.60;7.43;;;18.10;99.90;;;;;;5028349;28;20052;-47
2021/07/30 06:39:24;;;;;;;11.98;7.38;;;17.90;99.90;;;;;;5027647;28;20049;-46
2021/07/30 06:41:51;;;;;;;13.65;6.88;;;17.90;99.90;;;;;;5028265;28;20095;-49
2021/07/30 06:44:17;;;;;;;12.13;6.80;;;18.10;99.90;;;;;;5032670;28;20126;-49
2021/07/30 06:46:44;;;;;;;12.40;7.00;;;18.20;99.90;;;;;;5028311;28;20132;-48
2021/07/30 06:49:10;;;;;;;13.65;7.97;;;18.30;99.90;;;;;;5033097;28;20115;-47
2021/07/30 06:51:36;;;;;;;10.82;7.85;;;18.30;99.90;;;;;;5028017;28;20127;-49
2021/07/30 06:54:03;;;;;;;13.35;7.78;;;18.20;99.90;;;;;;5027168;28;20136;-49
2021/07/30 06:56:31;;;;;;;12.80;7.43;;;18.40;99.90;;;;;;5032519;28;20259;-49
2021/07/30 06:58:57;;;;;;;11.70;6.95;;;18.70;99.90;;;;;;5027012;28;20570;-49
2021/07/30 07:01:26;;;;;;;12.27;7.35;;;18.90;99.90;;;;;;5028693;28;20045;-50
2021/07/30 07:03:53;;;;;;;14.00;7.38;;;19.30;99.90;;;;;;5027059;28;20049;-49
2021/07/30 07:06:20;;;;;;;16.67;8.45;;;19.40;99.90;;;;;;5028741;28;20053;-50
2021/07/30 07:08:46;;;;;;;14.02;7.82;;;19.40;99.90;;;;;;5028148;28;20501;-48
2021/07/30 07:11:12;;;;;;;13.52;6.70;;;19.70;99.90;;;;;;5027832;28;20049;-49
2021/07/30 07:13:41;;;;;;;10.63;7.05;;;19.70;99.90;;;;;;5028013;28;20069;-49
2021/07/30 07:16:11;;;;;;;11.40;6.47;;;19.80;99.90;;;;;;5028896;28;20049;-48
2021/07/30 07:18:37;;;;;;;12.10;7.45;;;19.90;99.90;;;;;;5031013;28;20049;-51
2021/07/30 07:21:03;;;;;;;12.52;6.97;;;19.90;99.90;;;;;;5028517;28;20053;-47
2021/07/30 07:23:30;;;;;;;10.50;7.05;;;20.00;99.90;;;;;;5027656;28;20057;-49
2021/07/30 07:25:59;;;;;;;15.63;6.68;;;20.30;99.90;;;;;;5028298;28;20053;-49
2021/07/30 07:28:27;;;;;;;13.50;6.53;;;20.30;99.90;;;;;;5028193;28;20061;-48
2021/07/30 07:30:54;;;;;;;12.93;6.90;;;20.30;99.90;;;;;;5027124;28;20053;-50
2021/07/30 07:33:21;;;;;;;12.85;6.60;;;20.50;99.90;;;;;;5016950;28;20077;-48
2021/07/30 07:35:47;;;;;;;13.38;5.95;;;20.50;99.90;;;;;;5008133;28;20058;-48
2021/07/30 07:38:13;;;;;;;12.93;5.88;;;20.30;99.90;;;;;;5028117;28;20050;-48
2021/07/30 07:40:43;;;;;;;10.93;6.53;;;20.20;99.90;;;;;;5021525;28;20050;-49
2021/07/30 07:43:10;;;;;;;12.45;6.03;;;20.00;99.90;;;;;;5007672;28;20069;-50
2021/07/30 07:45:36;;;;;;;11.65;6.55;;;20.00;99.90;;;;;;5022186;28;20045;-45
2021/07/30 07:48:02;;;;;;;10.80;6.22;;;19.80;99.90;;;;;;5026254;28;20050;-46
2021/07/30 07:50:28;;;;;;;13.23;7.38;;;19.50;99.90;;;;;;5030642;28;20041;-46
2021/07/30 07:53:00;;;;;;;13.82;6.68;;;19.30;99.90;;;;;;5027578;28;20056;-46
2021/07/30 07:55:26;;;;;;;12.98;5.72;;;19.60;99.90;;;;;;5029072;28;20112;-45
2021/07/30 07:57:52;;;;;;;12.57;6.13;;;19.70;99.90;;;;;;5027313;28;20053;-46
2021/07/30 08:00:19;;;;;;;11.25;5.68;;;19.80;99.90;;;;;;5031540;28;20049;-47
2021/07/30 08:02:45;;;;;;;12.70;6.20;;;20.00;99.90;;;;;;5033390;28;20163;-47
2021/07/30 08:05:11;;;;;;;14.00;6.10;;;20.00;99.90;;;;;;5028222;28;20060;-46
2021/07/30 08:07:37;;;;;;;13.90;6.82;;;20.20;99.90;;;;;;5029384;28;20513;-46
2021/07/30 08:10:04;;;;;;;12.00;5.25;;;20.30;99.90;;;;;;5030765;28;20520;-46
2021/07/30 08:12:32;;;;;;;13.43;5.50;;;20.20;99.90;;;;;;5035950;28;20085;-46
2021/07/30 08:15:01;;;;;;;12.07;5.57;;;20.20;99.90;;;;;;5038177;28;20045;-46
2021/07/30 08:17:27;;;;;;;14.35;5.50;;;20.10;99.90;;;;;;5030440;28;20107;-47
2021/07/30 08:19:53;;;;;;;10.32;5.72;;;20.10;99.90;;;;;;5032412;28;20549;-46
2021/07/30 08:22:19;;;;;;;13.93;5.95;;;20.00;99.90;;;;;;5030494;28;20049;-47
2021/07/30 08:24:46;;;;;;;11.50;5.57;;;19.80;99.90;;;;;;5030598;28;20041;-46
2021/07/30 08:27:14;;;;;;;10.45;5.47;;;19.80;99.90;;;;;;5030272;28;20549;-45
2021/07/30 08:29:42;;;;;;;9.40;5.25;;;20.00;99.90;;;;;;5030021;28;20065;-46
2021/07/30 08:32:11;;;;;;;14.90;6.25;;;20.10;99.90;;;;;;5030165;28;20064;-46
2021/07/30 08:34:38;;;;;;;11.45;5.55;;;20.50;98.90;;;;;;5030564;28;20135;-47
2021/07/30 08:37:06;;;;;;;11.30;5.60;;;20.70;99.90;;;;;;5030473;28;20052;-48
2021/07/30 08:39:32;;;;;;;15.77;6.20;;;20.90;99.90;;;;;;5037398;28;20406;-48
2021/07/30 08:42:00;;;;;;;10.40;6.20;;;20.80;99.30;;;;;;5030394;28;20580;-48
2021/07/30 08:44:27;;;;;;;13.70;6.47;;;20.90;98.70;;;;;;5030955;28;20441;-47
2021/07/30 08:46:54;;;;;;;10.43;6.15;;;21.10;97.70;;;;;;5030863;28;20057;-47
2021/07/30 08:49:21;;;;;;;11.13;6.13;;;21.50;98.10;;;;;;5030772;28;20046;-48
2021/07/30 08:51:51;;;;;;;11.27;5.80;;;21.40;96.50;;;;;;5031088;28;20094;-47
2021/07/30 08:54:17;;;;;;;14.40;5.78;;;21.60;95.40;;;;;;5030595;28;20053;-47
2021/07/30 08:56:45;;;;;;;13.05;5.25;;;21.60;91.00;;;;;;5032624;28;20083;-46
2021/07/30 08:59:11;;;;;;;13.90;6.53;;;21.30;92.10;;;;;;5029971;28;20103;-47
2021/07/30 09:01:37;;;;;;;13.35;6.25;;;21.40;92.40;;;;;;5033507;28;20072;-47
2021/07/30 09:04:04;;;;;;;12.90;5.82;;;21.40;95.10;;;;;;5030739;28;20088;-46
2021/07/30 09:06:30;;;;;;;13.68;6.68;;;21.40;93.90;;;;;;5030318;28;20049;-48
2021/07/30 09:09:02;;;;;;;13.07;6.65;;;21.40;94.50;;;;;;5031674;28;20555;-46
2021/07/30 09:11:30;;;;;;;12.02;5.85;;;21.40;93.50;;;;;;5029706;28;20053;-47
2021/07/30 09:14:00;;;;;;;9.52;5.13;;;21.30;90.70;;;;;;5029491;28;20055;-46
2021/07/30 09:16:27;;;;;;;11.13;5.15;;;21.40;91.80;;;;;;5037024;28;20048;-46
2021/07/30 09:18:54;;;;;;;10.35;5.28;;;21.40;89.10;;;;;;5029867;28;20426;-48
2021/07/30 09:21:32;;;;;;;8.40;4.72;;;21.60;88.10;;;;;;5029239;28;20067;-46
2021/07/30 09:24:01;;;;;;;8.02;5.05;;;21.60;84.40;;;;;;5029634;28;20049;-46
2021/07/30 09:26:31;;;;;;;11.43;5.75;;;21.70;81.90;;;;;;5026117;28;20779;-46
2021/07/30 09:29:10;;;;;;;10.55;5.15;;;22.20;84.10;;;;;;5028572;28;20176;-46
2021/07/30 09:31:58;;;;;;;14.05;8.13;;;22.50;81.30;;;;;;5028906;28;20065;-53
2021/07/30 09:34:34;;;;;;;11.00;5.47;;;22.40;79.60;;;;;;5029100;28;20053;-49
2021/07/30 09:37:09;;;;;;;11.52;6.60;;;22.60;83.00;;;;;;5017709;28;20064;-53
2021/07/30 09:39:43;;;;;;;10.15;5.13;;;22.80;79.00;;;;;;5029865;28;20477;-50
2021/07/30 09:42:16;;;;;;;10.37;5.47;;;22.90;80.00;;;;;;5032179;28;20089;-47
2021/07/30 09:44:55;;;;;;;12.43;5.40;;;22.50;73.30;;;;;;5035016;28;20080;-47
2021/07/30 09:47:24;;;;;;;14.52;7.30;;;22.60;75.20;;;;;;5027943;28;20053;-46
2021/07/30 09:49:56;;;;;;;8.55;4.93;;;22.70;75.60;;;;;;5023530;28;20413;-49
2021/07/30 09:52:24;;;;;;;;;;;22.50;74.70;;;;;;5029815;28;20057;-49
2021/07/30 09:54:59;;;;;;;11.70;7.22;;;22.60;74.30;;;;;;5032275;28;19932;-47
2021/07/30 09:57:32;;;;;;;13.18;7.63;;;22.70;72.00;;;;;;5027088;28;20081;-50
2021/07/30 10:00:05;;;;;;;7.47;3.85;;;22.80;74.30;;;;;;5028177;28;20049;-47
2021/07/30 10:02:38;;;;;;;9.05;4.45;;;23.20;75.60;;;;;;5032231;28;20051;-51
2021/07/30 10:05:10;;;;;;;8.60;4.70;;;23.40;71.90;;;;;;5045504;28;20444;-53
2021/07/30 10:07:41;;;;;;;10.07;4.75;;;23.40;67.90;;;;;;5030273;28;20078;-52
2021/07/30 10:10:11;;;;;;;;;;;23.50;66.90;;;;;;5032333;28;20051;-53
2021/07/30 10:12:41;;;;;;;23.83;21.48;;;23.50;66.20;;;;;;5027249;28;19924;-55
2021/07/30 10:15:08;;;;;;;21.67;14.55;;;23.70;67.90;;;;;;5027320;28;20046;-55
2021/07/30 10:17:37;;;;;;;10.65;5.03;;;23.80;68.60;;;;;;5024462;28;20053;-53
2021/07/30 10:20:08;;;;;;;12.77;9.02;;;23.60;64.20;;;;;;5027530;28;20136;-53
2021/07/30 10:22:54;;;;;;;9.63;4.18;;;23.80;67.20;;;;;;5028226;28;20045;-54
2021/07/30 10:25:22;;;;;;;11.65;5.65;;;24.00;67.50;;;;;;5028313;28;20164;-50
2021/07/30 10:27:52;;;;;;;15.85;12.93;;;24.10;66.00;;;;;;5033273;28;20052;-54
2021/07/30 10:30:18;;;;;;;12.23;4.60;;;24.20;66.30;;;;;;5028665;28;20151;-50
2021/07/30 10:32:52;;;;;;;11.65;5.43;;;24.10;65.00;;;;;;5029033;28;20060;-48
2021/07/30 10:35:30;;;;;;;10.00;4.60;;;24.20;62.50;;;;;;5028555;28;20142;-52
2021/07/30 10:38:25;;;;;;;11.98;5.18;;;24.70;64.80;;;;;;5028710;28;20077;-53
2021/07/30 10:41:09;;;;;;;9.30;5.43;;;25.10;65.50;;;;;;5027455;28;20565;-54
2021/07/30 10:43:50;;;;;;;6.90;3.97;;;25.20;63.30;;;;;;5028760;28;20054;-52
2021/07/30 10:46:20;;;;;;;8.85;4.45;;;25.20;64.90;;;;;;5031992;28;20041;-50
2021/07/30 10:48:54;;;;;;;11.25;4.30;;;25.20;62.40;;;;;;5028717;28;20053;-54
2021/07/30 10:51:24;;;;;;;9.65;5.45;;;25.10;61.90;;;;;;5030771;28;20387;-52
2021/07/30 10:53:55;;;;;;;41.38;37.35;;;25.00;63.90;;;;;;5028526;28;20060;-52
2021/07/30 10:56:23;;;;;;;;;;;25.10;61.50;;;;;;5028569;28;20046;-56
2021/07/30 10:58:50;;;;;;;8.57;4.28;;;25.70;65.00;;;;;;5029899;28;19959;-55
2021/07/30 11:01:43;;;;;;;8.15;5.68;;;26.60;63.10;;;;;;5027882;28;20045;-56
2021/07/30 11:04:12;;;;;;;8.07;3.78;;;26.50;57.70;;;;;;5028753;28;20072;-57
2021/07/30 11:06:42;;;;;;;8.45;4.63;;;26.60;58.10;;;;;;5033071;28;20076;-57
2021/07/30 11:09:10;;;;;;;11.48;5.85;;;26.80;58.40;;;;;;5037007;28;20061;-57
2021/07/30 11:12:07;;;;;;;8.35;3.83;;;26.70;59.00;;;;;;5037251;28;20049;-58
2021/07/30 11:14:37;;;;;;;7.85;3.83;;;26.60;60.80;;;;;;5032841;28;20152;-57
2021/07/30 11:17:05;;;;;;;10.88;3.92;;;25.90;58.80;;;;;;5015041;28;20048;-57
2021/07/30 11:19:37;;;;;;;8.05;3.95;;;26.00;57.10;;;;;;5031902;28;20049;-56
2021/07/30 11:22:16;;;;;;;6.07;2.80;;;26.00;57.60;;;;;;5037137;28;20404;-58
2021/07/30 11:24:48;;;;;;;9.23;3.70;;;26.00;59.40;;;;;;5032601;28;20045;-57
2021/07/30 11:27:17;;;;;;;7.50;2.80;;;26.60;57.80;;;;;;5034056;28;20049;-57
2021/07/30 11:29:56;;;;;;;8.13;4.10;;;26.70;55.80;;;;;;5036815;28;20393;-56
2021/07/30 11:32:23;;;;;;;8.50;2.97;;;26.80;57.30;;;;;;5041680;28;20053;-57
2021/07/30 11:34:52;;;;;;;6.75;3.17;;;26.20;56.30;;;;;;5043246;28;20552;-57
2021/07/30 11:37:24;;;;;;;5.95;2.80;;;25.60;56.30;;;;;;5040468;28;20060;-57
2021/07/30 11:39:53;;;;;;;7.55;3.22;;;25.50;58.10;;;;;;5049292;28;20060;-56
2021/07/30 11:42:28;;;;;;;6.70;2.47;;;25.20;58.00;;;;;;5036088;28;20045;-57
2021/07/30 11:44:56;;;;;;;6.22;2.47;;;25.10;59.70;;;;;;5046921;28;20052;-58
2021/07/30 11:47:33;;;;;;;7.47;2.70;;;25.00;58.20;;;;;;5034716;28;20052;-59
2021/07/30 11:50:09;;;;;;;7.28;2.58;;;25.70;60.20;;;;;;5033374;28;20053;-58
2021/07/30 11:52:37;;;;;;;5.65;2.13;;;26.00;59.40;;;;;;5037689;28;20144;-58
2021/07/30 11:55:17;;;;;;;5.82;2.53;;;26.30;57.80;;;;;;5048935;28;20504;-58
2021/07/30 11:57:54;;;;;;;7.15;2.67;;;26.60;55.10;;;;;;5045360;28;20057;-58
2021/07/30 12:00:30;;;;;;;6.78;2.70;;;26.60;55.60;;;;;;5036990;28;20045;-59
2021/07/30 12:02:57;;;;;;;7.43;2.78;;;26.20;56.50;;;;;;5033861;28;20040;-58
2021/07/30 12:05:36;;;;;;;5.68;2.03;;;26.00;57.00;;;;;;5037538;28;20053;-57
2021/07/30 12:08:03;;;;;;;4.25;2.08;;;25.80;58.00;;;;;;5046439;28;20045;-58
2021/07/30 12:10:31;;;;;;;5.80;2.58;;;25.30;56.80;;;;;;5052748;28;20128;-58
2021/07/30 12:13:07;;;;;;;7.57;2.53;;;24.80;57.20;;;;;;5045124;28;20461;-59
2021/07/30 12:15:35;;;;;;;17.33;14.25;;;24.50;57.60;;;;;;5046454;28;20056;-59
2021/07/30 12:18:06;;;;;;;9.20;4.03;;;24.30;58.20;;;;;;5046690;28;20053;-58
2021/07/30 12:20:38;;;;;;;7.68;2.50;;;24.40;60.20;;;;;;5040949;28;20059;-59
2021/07/30 12:23:07;;;;;;;18.98;14.60;;;24.60;59.90;;;;;;5046205;28;20071;-55
2021/07/30 12:25:42;;;;;;;6.93;2.80;;;24.60;61.30;;;;;;5045075;28;20128;-59
2021/07/30 12:28:13;;;;;;;6.47;2.72;;;24.60;60.10;;;;;;5032277;28;20050;-58
2021/07/30 12:30:40;;;;;;;7.07;3.70;;;24.80;62.70;;;;;;5033029;28;20051;-59
2021/07/30 12:33:27;;;;;;;6.80;3.88;;;25.00;61.70;;;;;;5034082;28;20081;-58
2021/07/30 12:36:08;;;;;;;25.13;22.50;;;25.40;61.00;;;;;;5039258;28;20049;-58
2021/07/30 12:38:50;;;;;;;28.50;25.63;;;25.80;60.40;;;;;;5037197;28;20054;-57
2021/07/30 12:41:21;;;;;;;9.48;6.55;;;25.80;58.10;;;;;;5030035;28;20144;-58
2021/07/30 12:43:47;;;;;;;13.05;7.75;;;25.90;60.10;;;;;;5052311;28;20061;-58
2021/07/30 12:46:35;;;;;;;9.88;5.05;;;26.80;59.40;;;;;;5044923;28;20494;-57